Terminal Aerodrome Forecast
Issued by NWS Sioux Falls, SD

Home | Current Version | Previous Version | Graphics & Text | Print | Product List | Glossary Off
Versions: 1 2 3 4 5 6 7 8 9 10 11 12 13 14 15 16 17 18

000
FTUS43 KFSD 241735
TAFSUX
TAF
KSUX 241735Z 2418/2518 18020G31KT P6SM SCT040 BKN200
     FM242300 21014G22KT P6SM FEW050 SCT110
     FM250100 21009KT P6SM SCT110
     FM250400 24006KT P6SM SCT140
     FM250500 32006KT P6SM SCT150
     FM250600 35006KT P6SM SCT200
     FM251400 03011KT 5SM -RA BR OVC015
     FM251600 03011KT 4SM -RA BR OVC008=

USA.gov is the U.S. government's official web portal to all federal, state and local government web resources and services.